createdAt,value
2019-02-14T00:00:37.584Z,43.10
2019-02-14T00:03:30.264Z,43.10
2019-02-14T00:06:22.786Z,43.10
2019-02-14T00:09:15.612Z,43.20
2019-02-14T00:12:08.248Z,43.10
2019-02-14T00:15:01.400Z,43.10
2019-02-14T00:17:54.014Z,42.90
2019-02-14T00:20:46.297Z,43.30
2019-02-14T00:23:39.449Z,43.30
2019-02-14T00:26:32.302Z,43.30
2019-02-14T00:29:25.169Z,43.10
2019-02-14T00:32:20.941Z,43.20
2019-02-14T00:35:13.568Z,43.30
2019-02-14T00:38:06.118Z,43.30
2019-02-14T00:40:58.964Z,43.20
2019-02-14T00:43:54.831Z,43.20
2019-02-14T00:46:47.165Z,43.10
2019-02-14T00:49:39.795Z,43.30
2019-02-14T00:52:32.395Z,43.40
2019-02-14T00:55:24.975Z,43.30
2019-02-14T00:58:17.559Z,43.40
2019-02-14T01:01:10.460Z,43.50
2019-02-14T01:04:02.880Z,43.30
2019-02-14T01:06:55.023Z,43.30
2019-02-14T01:09:47.477Z,43.30
2019-02-14T01:12:40.098Z,43.40
2019-02-14T01:15:34.770Z,43.50
2019-02-14T01:18:26.905Z,43.30
2019-02-14T01:21:20.596Z,43.30
2019-02-14T01:24:16.748Z,43.40
2019-02-14T01:27:10.764Z,43.40
2019-02-14T01:30:04.403Z,43.30
2019-02-14T01:32:58.269Z,43.30
2019-02-14T01:35:51.296Z,43.40
2019-02-14T01:38:44.526Z,43.30
2019-02-14T01:41:37.788Z,43.40
2019-02-14T01:44:32.920Z,43.60
2019-02-14T01:47:25.104Z,43.70
2019-02-14T01:50:19.470Z,43.60
2019-02-14T01:53:12.241Z,43.60
2019-02-14T01:56:04.580Z,43.70
2019-02-14T01:58:57.844Z,43.70
2019-02-14T02:01:51.680Z,43.70
2019-02-14T02:04:44.406Z,43.70
2019-02-14T02:07:37.001Z,43.80
2019-02-14T02:10:30.266Z,43.60
2019-02-14T02:13:23.472Z,43.60
2019-02-14T02:16:17.384Z,43.50
2019-02-14T02:19:10.160Z,43.70
2019-02-14T02:22:04.474Z,43.60
2019-02-14T02:24:59.891Z,43.60
2019-02-14T02:27:53.661Z,43.70
2019-02-14T02:30:45.853Z,43.70
2019-02-14T02:33:38.382Z,43.60
2019-02-14T02:36:33.984Z,43.60
2019-02-14T02:39:26.935Z,43.50
2019-02-14T02:42:20.204Z,43.50
2019-02-14T02:45:16.021Z,43.40
2019-02-14T02:48:09.324Z,43.20
2019-02-14T02:51:04.918Z,43.30
2019-02-14T02:53:57.553Z,43.40
2019-02-14T02:56:50.700Z,43.40
2019-02-14T02:59:44.669Z,43.40
2019-02-14T03:02:38.887Z,43.60
2019-02-14T03:05:32.161Z,43.70
2019-02-14T03:08:27.367Z,43.70
2019-02-14T03:11:20.576Z,43.50
2019-02-14T03:14:14.101Z,43.80
2019-02-14T03:17:10.803Z,43.60
2019-02-14T03:20:33.457Z,43.60
2019-02-14T03:23:24.957Z,43.50
2019-02-14T03:26:21.189Z,43.70
2019-02-14T03:29:14.579Z,43.80
2019-02-14T03:32:07.296Z,43.60
2019-02-14T03:35:01.176Z,43.40
2019-02-14T03:37:54.469Z,43.70
2019-02-14T03:40:49.529Z,43.70
2019-02-14T03:43:42.719Z,43.70
2019-02-14T03:46:35.749Z,43.40
2019-02-14T03:49:32.425Z,43.60
2019-02-14T03:52:25.760Z,44.20
2019-02-14T03:55:19.394Z,43.70
2019-02-14T03:58:12.271Z,43.60
2019-02-14T04:01:23.438Z,43.70
2019-02-14T04:04:10.091Z,43.40
2019-02-14T04:07:03.186Z,43.40
2019-02-14T04:09:59.132Z,43.40
2019-02-14T04:12:53.141Z,43.60
2019-02-14T04:15:48.900Z,43.60
2019-02-14T04:18:44.473Z,43.60
2019-02-14T04:21:39.067Z,43.50
2019-02-14T04:24:33.003Z,43.50
2019-02-14T04:27:26.374Z,43.40
2019-02-14T04:30:19.423Z,43.50
2019-02-14T04:33:12.992Z,43.50
2019-02-14T04:36:18.123Z,43.70
2019-02-14T04:39:48.030Z,44.40
2019-02-14T04:43:12.442Z,47.20
2019-02-14T05:55:03.936Z,46.10
2019-02-14T05:57:59.469Z,45.20
2019-02-14T06:01:17.633Z,43.90
2019-02-14T06:04:42.504Z,43.40
2019-02-14T06:36:23.475Z,41.70
2019-02-14T06:39:22.668Z,41.00
2019-02-14T06:42:18.273Z,41.30
2019-02-14T06:45:11.704Z,41.50
2019-02-14T06:48:37.836Z,41.30
2019-02-14T06:51:26.166Z,41.40
2019-02-14T06:57:47.679Z,41.30
2019-02-14T07:00:45.781Z,41.10
2019-02-14T07:03:43.464Z,41.10
2019-02-14T07:06:49.018Z,41.00
2019-02-14T07:09:43.983Z,40.80
2019-02-14T07:12:38.901Z,40.60
2019-02-14T07:15:34.287Z,40.30
2019-02-14T07:18:27.211Z,40.10
2019-02-14T07:21:21.909Z,40.40
2019-02-14T07:24:15.573Z,39.80
2019-02-14T07:27:11.545Z,40.30
2019-02-14T07:30:06.397Z,40.00
2019-02-14T07:33:01.176Z,39.80
2019-02-14T07:35:56.110Z,39.30
2019-02-14T07:38:52.489Z,39.00
2019-02-14T07:41:48.721Z,39.50
2019-02-14T07:44:44.708Z,39.40
2019-02-14T07:47:49.536Z,38.80
2019-02-14T07:50:47.856Z,39.20
2019-02-14T07:54:05.142Z,38.90
2019-02-14T07:57:00.635Z,38.90
2019-02-14T07:59:55.649Z,39.50
2019-02-14T08:02:49.427Z,38.50
2019-02-14T08:05:43.423Z,38.60
2019-02-14T08:08:42.559Z,38.50
2019-02-14T08:11:36.651Z,37.90
2019-02-14T08:14:33.318Z,38.50
2019-02-14T08:17:33.878Z,37.90
2019-02-14T08:20:28.502Z,38.30
2019-02-14T08:23:27.063Z,38.50
2019-02-14T08:26:24.849Z,37.50
2019-02-14T08:29:18.408Z,38.10
2019-02-14T08:32:12.510Z,38.40
2019-02-14T08:35:18.488Z,38.10
2019-02-14T08:38:27.679Z,37.90
2019-02-14T08:41:49.428Z,37.60
2019-02-14T08:44:43.583Z,37.80
2019-02-14T08:47:46.676Z,37.50
2019-02-14T08:50:43.827Z,37.90
2019-02-14T08:53:43.788Z,37.80
2019-02-14T08:56:37.769Z,37.90
2019-02-14T08:59:35.877Z,38.60
2019-02-14T09:02:41.473Z,38.50
2019-02-14T09:05:38.142Z,38.10
2019-02-14T09:08:41.959Z,38.20
2019-02-14T09:11:37.860Z,38.40
2019-02-14T09:14:31.757Z,38.70
2019-02-14T09:17:37.122Z,37.90
2019-02-14T09:20:33.195Z,38.00
2019-02-14T09:23:30.124Z,38.40
2019-02-14T09:26:29.512Z,38.20
2019-02-14T09:29:24.027Z,38.30
2019-02-14T09:32:20.305Z,37.80
2019-02-14T09:35:17.389Z,38.20
2019-02-14T09:38:10.053Z,38.00
2019-02-14T09:41:06.926Z,37.90
2019-02-14T09:44:00.048Z,37.90
2019-02-14T09:47:18.565Z,37.90
2019-02-14T09:50:17.537Z,37.80
2019-02-14T09:53:13.757Z,38.10
2019-02-14T09:56:09.327Z,37.70
2019-02-14T09:59:52.495Z,37.80
2019-02-14T10:03:16.710Z,38.50
2019-02-14T10:13:23.629Z,37.60
2019-02-14T10:14:00.842Z,37.90
2019-02-14T10:20:49.002Z,38.20
2019-02-14T10:23:41.302Z,37.20
2019-02-14T10:26:39.796Z,38.00
2019-02-14T10:33:01.595Z,37.70
2019-02-14T10:35:59.339Z,37.60
2019-02-14T10:38:53.125Z,37.90
2019-02-14T10:41:45.357Z,37.60
2019-02-14T10:44:40.618Z,38.10
2019-02-14T10:47:34.429Z,38.30
2019-02-14T10:50:29.063Z,38.10
2019-02-14T10:53:23.922Z,38.00
2019-02-14T10:56:17.201Z,37.10
2019-02-14T10:59:13.633Z,37.80
2019-02-14T11:02:07.315Z,37.60
2019-02-14T11:05:22.033Z,37.80
2019-02-14T11:08:09.528Z,37.90
2019-02-14T11:11:11.222Z,37.90
2019-02-14T11:14:08.784Z,37.90
2019-02-14T11:17:13.596Z,37.90
2019-02-14T11:20:07.429Z,37.90
2019-02-14T11:29:45.797Z,38.60
2019-02-14T11:32:44.659Z,38.60
2019-02-14T11:35:53.142Z,38.40
2019-02-14T11:39:07.957Z,38.30
2019-02-14T11:42:40.595Z,38.40
2019-02-14T11:45:47.007Z,38.00
2019-02-14T11:48:53.372Z,37.10
2019-02-14T11:51:36.870Z,37.30
2019-02-14T11:54:33.439Z,37.50
2019-02-14T11:57:26.276Z,37.80
2019-02-14T12:00:30.047Z,37.90
2019-02-14T12:03:23.120Z,38.00
2019-02-14T12:06:17.653Z,38.10
2019-02-14T12:12:40.706Z,38.10
2019-02-14T12:15:34.563Z,38.20
2019-02-14T12:18:35.507Z,38.40
2019-02-14T12:21:35.978Z,38.40
2019-02-14T12:24:31.583Z,38.00
2019-02-14T12:27:38.465Z,38.00
2019-02-14T12:30:45.904Z,37.70
2019-02-14T12:33:39.483Z,37.80
2019-02-14T12:36:34.461Z,37.90
2019-02-14T12:39:29.748Z,38.00
2019-02-14T12:42:30.763Z,38.10
2019-02-14T12:46:02.256Z,38.20
2019-02-14T12:48:55.383Z,38.30
2019-02-14T12:51:48.850Z,38.30
2019-02-14T12:54:41.290Z,38.40
2019-02-14T12:57:36.426Z,38.40
2019-02-14T13:00:28.492Z,38.50
2019-02-14T13:03:21.432Z,38.60
2019-02-14T13:06:14.125Z,38.70
2019-02-14T13:09:07.218Z,38.70
2019-02-14T13:12:00.094Z,38.90
2019-02-14T13:14:53.258Z,38.80
2019-02-14T13:17:46.904Z,38.80
2019-02-14T13:20:40.181Z,38.90
2019-02-14T13:23:33.117Z,38.80
2019-02-14T13:26:28.045Z,39.00
2019-02-14T13:29:20.868Z,39.10
2019-02-14T13:32:14.379Z,39.10
2019-02-14T13:35:07.299Z,39.00
2019-02-14T13:37:59.774Z,39.20
2019-02-14T13:40:54.797Z,39.20
2019-02-14T13:43:47.047Z,39.20
2019-02-14T13:46:40.126Z,39.20
2019-02-14T13:49:33.160Z,39.30
2019-02-14T13:52:27.255Z,39.30
2019-02-14T13:55:20.232Z,39.20
2019-02-14T13:58:13.572Z,39.40
2019-02-14T14:01:09.845Z,39.40
2019-02-14T14:04:03.218Z,39.40
2019-02-14T14:06:55.823Z,40.30
2019-02-14T14:09:48.503Z,39.50
2019-02-14T14:13:17.549Z,39.60
2019-02-14T14:16:11.841Z,39.60
2019-02-14T14:19:06.374Z,39.60
2019-02-14T14:21:57.846Z,39.70
2019-02-14T14:24:51.697Z,39.70
2019-02-14T14:27:44.292Z,39.90
2019-02-14T14:30:37.155Z,39.70
2019-02-14T14:33:30.390Z,39.70
2019-02-14T14:36:23.222Z,39.80
2019-02-14T14:39:16.534Z,39.90
2019-02-14T14:42:12.524Z,39.90
2019-02-14T14:45:05.524Z,40.10
2019-02-14T14:48:00.729Z,40.10
2019-02-14T14:50:54.724Z,40.10
2019-02-14T14:53:52.625Z,40.10
2019-02-14T14:56:46.286Z,40.10
2019-02-14T14:59:39.684Z,40.10
2019-02-14T15:02:33.372Z,40.20
2019-02-14T15:05:27.638Z,40.10
2019-02-14T15:08:20.282Z,40.10
2019-02-14T15:11:12.864Z,40.30
2019-02-14T15:14:05.372Z,40.30
2019-02-14T15:16:58.197Z,40.30
2019-02-14T15:19:52.716Z,40.30
2019-02-14T15:22:45.745Z,40.40
2019-02-14T15:25:39.022Z,40.30
2019-02-14T15:28:32.473Z,40.30
2019-02-14T15:31:25.522Z,40.30
2019-02-14T15:34:18.704Z,40.50
2019-02-14T15:37:12.706Z,40.50
2019-02-14T15:40:09.234Z,40.50
2019-02-14T15:42:59.084Z,40.60
2019-02-14T15:45:51.970Z,40.60
2019-02-14T15:48:45.331Z,40.40
2019-02-14T15:51:39.505Z,40.60
2019-02-14T15:54:33.166Z,40.50
2019-02-14T15:57:25.991Z,40.50
2019-02-14T16:00:18.721Z,40.50
2019-02-14T16:03:11.962Z,40.70
2019-02-14T16:06:06.184Z,40.70
2019-02-14T16:09:01.852Z,40.70
2019-02-14T16:11:57.753Z,40.80
2019-02-14T16:14:47.968Z,40.70
2019-02-14T16:17:43.159Z,40.70
2019-02-14T16:20:42.075Z,40.60
2019-02-14T16:23:36.071Z,40.70
2019-02-14T16:26:29.388Z,40.70
2019-02-14T16:29:23.230Z,40.80
2019-02-14T16:32:16.764Z,40.70
2019-02-14T16:35:10.614Z,40.90
2019-02-14T16:38:02.997Z,40.70
2019-02-14T16:40:55.385Z,40.70
2019-02-14T16:43:48.021Z,40.70
2019-02-14T16:46:41.123Z,40.80
2019-02-14T16:49:34.398Z,40.80
2019-02-14T16:52:27.504Z,40.80
2019-02-14T16:55:20.409Z,41.00
2019-02-14T16:58:13.515Z,40.90
2019-02-14T17:01:07.151Z,40.90
2019-02-14T17:04:00.904Z,40.90
2019-02-14T17:06:56.437Z,41.00
2019-02-14T17:09:52.648Z,41.10
2019-02-14T17:12:46.880Z,41.00
2019-02-14T17:15:46.391Z,40.90
2019-02-14T17:18:35.096Z,41.10
2019-02-14T17:21:27.925Z,40.90
2019-02-14T17:28:38.335Z,40.90
2019-02-14T17:31:32.652Z,40.90
2019-02-14T17:34:25.366Z,40.90
2019-02-14T17:37:21.843Z,40.70
2019-02-14T17:40:15.055Z,40.70
2019-02-14T17:43:10.266Z,40.90
2019-02-14T17:46:05.025Z,40.80
2019-02-14T17:49:07.486Z,40.90
2019-02-14T17:52:03.115Z,40.90
2019-02-14T17:54:56.446Z,41.00
2019-02-14T17:57:50.246Z,41.00
2019-02-14T18:00:44.103Z,40.90
2019-02-14T18:03:36.885Z,40.90
2019-02-14T18:06:29.988Z,40.90
2019-02-14T18:09:22.545Z,41.00
2019-02-14T18:12:15.382Z,41.10
2019-02-14T18:15:08.799Z,41.00
2019-02-14T18:18:01.118Z,41.10
2019-02-14T18:21:11.492Z,41.00
2019-02-14T18:24:10.712Z,41.10
2019-02-14T18:27:03.421Z,41.00
2019-02-14T18:29:57.595Z,41.10
2019-02-14T18:32:50.835Z,41.20
2019-02-14T18:35:45.124Z,41.30
2019-02-14T18:38:38.520Z,42.00
2019-02-14T18:41:31.233Z,41.40
2019-02-14T18:44:23.911Z,41.20
2019-02-14T18:47:16.573Z,41.20
2019-02-14T18:50:09.127Z,41.30
2019-02-14T18:53:02.722Z,41.40
2019-02-14T18:55:57.301Z,41.30
2019-02-14T18:58:51.664Z,41.40
2019-02-14T19:01:45.997Z,41.40
2019-02-14T19:04:39.163Z,41.50
2019-02-14T19:07:31.960Z,42.10
2019-02-14T19:10:24.434Z,41.50
2019-02-14T19:13:18.862Z,41.50
2019-02-14T19:16:12.490Z,41.50
2019-02-14T19:19:03.784Z,41.60
2019-02-14T19:21:56.272Z,41.50
2019-02-14T19:24:50.429Z,41.50
2019-02-14T19:27:43.151Z,41.60
2019-02-14T19:30:36.309Z,41.50
2019-02-14T19:33:29.356Z,41.80
2019-02-14T19:36:24.961Z,41.80
2019-02-14T19:39:18.277Z,41.60
2019-02-14T19:42:10.987Z,41.70
2019-02-14T19:45:03.539Z,41.70
2019-02-14T19:47:55.941Z,41.70
2019-02-14T19:50:48.616Z,41.80
2019-02-14T19:53:40.872Z,41.70
2019-02-14T19:56:33.925Z,41.80
2019-02-14T19:59:31.247Z,41.80
2019-02-14T20:02:23.954Z,41.90
2019-02-14T20:05:16.920Z,41.90
2019-02-14T20:08:10.412Z,41.90
2019-02-14T20:11:03.722Z,42.00
2019-02-14T20:13:57.036Z,41.80
2019-02-14T20:16:49.668Z,41.70
2019-02-14T20:19:42.858Z,41.70
2019-02-14T20:22:35.449Z,42.00
2019-02-14T20:25:28.441Z,41.70
2019-02-14T20:28:20.774Z,41.70
2019-02-14T20:31:13.938Z,41.80
2019-02-14T20:34:06.434Z,41.80
2019-02-14T20:37:00.308Z,41.70
2019-02-14T20:39:52.898Z,41.70
2019-02-14T20:42:45.486Z,41.70
2019-02-14T20:45:39.764Z,41.80
2019-02-14T20:48:33.127Z,41.70
2019-02-14T20:51:26.224Z,41.80
2019-02-14T20:54:18.740Z,42.00
2019-02-14T20:57:11.681Z,42.20
2019-02-14T21:00:06.040Z,42.10
2019-02-14T21:02:59.675Z,42.20
2019-02-14T21:05:52.984Z,42.00
2019-02-14T21:08:45.870Z,42.00
2019-02-14T21:11:38.418Z,42.20
2019-02-14T21:14:31.224Z,42.20
2019-02-14T21:17:24.413Z,42.30
2019-02-14T21:20:17.756Z,42.40
2019-02-14T21:23:11.587Z,42.40
2019-02-14T21:26:04.644Z,42.40
2019-02-14T21:28:57.457Z,42.50
2019-02-14T21:31:50.598Z,42.60
2019-02-14T21:34:43.631Z,42.40
2019-02-14T21:37:36.783Z,42.50
2019-02-14T21:40:29.670Z,42.50
2019-02-14T21:43:22.600Z,42.60
2019-02-14T21:46:15.106Z,42.70
2019-02-14T21:49:09.679Z,42.70
2019-02-14T21:52:02.657Z,42.80
2019-02-14T21:54:55.473Z,42.90
2019-02-14T21:57:48.271Z,42.90
2019-02-14T22:00:41.153Z,42.90
2019-02-14T22:03:34.382Z,42.90
2019-02-14T22:06:28.826Z,42.90
2019-02-14T22:09:21.898Z,42.90
2019-02-14T22:12:14.971Z,42.80
2019-02-14T22:15:08.217Z,43.00
2019-02-14T22:18:00.759Z,43.00
2019-02-14T22:20:53.448Z,42.90
2019-02-14T22:23:46.429Z,43.00
2019-02-14T22:26:39.554Z,43.00
2019-02-14T22:29:32.360Z,43.10
2019-02-14T22:32:24.876Z,43.10
2019-02-14T22:35:17.790Z,43.10
2019-02-14T22:38:10.801Z,43.20
2019-02-14T22:41:03.679Z,43.30
2019-02-14T22:43:56.432Z,43.00
2019-02-14T22:46:49.170Z,43.00
2019-02-14T22:49:41.788Z,43.00
2019-02-14T22:52:34.829Z,43.10
2019-02-14T22:55:27.743Z,42.80
2019-02-14T22:58:21.803Z,43.00
2019-02-14T23:01:17.869Z,43.00
2019-02-14T23:04:16.443Z,43.00
2019-02-14T23:07:13.553Z,42.90
2019-02-14T23:10:13.474Z,42.90
2019-02-14T23:13:18.662Z,42.90
2019-02-14T23:16:13.358Z,43.10
2019-02-14T23:19:11.781Z,43.00
2019-02-14T23:22:15.259Z,43.00
2019-02-14T23:25:12.329Z,43.20
2019-02-14T23:28:06.539Z,43.10
2019-02-14T23:31:04.351Z,43.10
2019-02-14T23:33:56.787Z,42.80
2019-02-14T23:36:49.977Z,42.80
2019-02-14T23:39:47.844Z,42.60
2019-02-14T23:42:37.499Z,42.80
2019-02-14T23:45:29.112Z,42.80
2019-02-14T23:48:23.047Z,42.80
2019-02-14T23:54:05.888Z,43.00
2019-02-14T23:56:59.597Z,43.10
2019-02-14T23:59:52.423Z,42.80
